Time;durP1;ratioP1;P1;durP2;ratioP2;P2;SDS_P1;SDS_P2;PMS_P1;PMS_P2;Temp;Humidity;BMP_temperature;BMP_pressure;BME280_temperature;BME280_humidity;BME280_pressure;Samples;Min_cycle;Max_cycle;Signal;HPM_P1;HPM_P2
2022/12/15 00:38:45;;;;;;;92.00;41.63;;;-7.10;99.90;;;;;;4975282;28;20384;-76
2022/12/15 00:41:15;;;;;;;79.77;35.33;;;-7.10;99.90;;;;;;4975434;28;20279;-76
2022/12/15 00:43:45;;;;;;;82.67;36.07;;;-7.00;99.90;;;;;;4975335;28;20196;-75
2022/12/15 00:49:01;;;;;;;75.50;35.47;;;-7.20;99.90;;;;;;4975358;28;20204;-76
2022/12/15 01:21:57;;;;;;;289.97;100.10;;;-7.50;99.90;;;;;;4957584;28;20204;-74
2022/12/15 01:24:26;;;;;;;123.63;47.73;;;-7.50;99.90;;;;;;4974625;28;20212;-73
2022/12/15 01:26:54;;;;;;;104.93;44.20;;;-7.50;99.90;;;;;;4974499;28;20754;-73
2022/12/15 01:29:23;;;;;;;77.43;36.93;;;-7.50;99.90;;;;;;4974569;28;20283;-72
2022/12/15 01:31:52;;;;;;;81.73;36.57;;;-7.50;99.90;;;;;;4974761;28;20666;-74
2022/12/15 01:34:22;;;;;;;79.20;33.20;;;-7.70;99.90;;;;;;4974548;28;20243;-75
2022/12/15 01:36:50;;;;;;;77.60;35.67;;;-7.70;99.90;;;;;;4974334;28;20200;-75
2022/12/15 01:39:19;;;;;;;120.47;49.77;;;-7.80;99.90;;;;;;4974191;28;20260;-75
2022/12/15 01:41:46;;;;;;;140.03;58.87;;;-7.80;99.90;;;;;;4974121;28;20204;-75
2022/12/15 01:44:17;;;;;;;117.17;51.80;;;-7.70;99.90;;;;;;4974086;28;20247;-76
2022/12/15 01:46:47;;;;;;;114.87;44.57;;;-7.60;99.90;;;;;;4974057;28;20199;-76
2022/12/15 01:49:20;;;;;;;95.67;41.63;;;-7.60;99.90;;;;;;4974571;28;20303;-73
2022/12/15 01:51:55;;;;;;;82.90;34.70;;;-7.60;99.90;;;;;;4974301;28;20203;-73
2022/12/15 01:54:29;;;;;;;83.60;35.43;;;-7.80;99.90;;;;;;4974007;28;20227;-75
2022/12/15 01:57:03;;;;;;;77.43;33.63;;;-7.80;99.90;;;;;;4974154;28;20192;-76
2022/12/15 01:59:37;;;;;;;70.93;31.63;;;-8.00;99.90;;;;;;4974255;28;20251;-75
2022/12/15 02:02:06;;;;;;;66.67;32.00;;;-8.00;99.90;;;;;;4973921;28;20223;-76
2022/12/15 02:04:36;;;;;;;68.10;31.60;;;-8.10;99.90;;;;;;4973951;28;20302;-75
2022/12/15 02:07:06;;;;;;;74.40;31.27;;;-8.10;99.90;;;;;;4973731;28;20697;-73
2022/12/15 02:09:35;;;;;;;105.93;46.13;;;-7.90;99.90;;;;;;4973853;28;21050;-71
2022/12/15 02:12:12;;;;;;;85.07;36.63;;;-7.90;99.90;;;;;;4973984;28;20200;-74
2022/12/15 02:14:48;;;;;;;65.33;31.77;;;-7.90;99.90;;;;;;4970484;28;20231;-74
2022/12/15 02:17:28;;;;;;;67.43;31.27;;;-7.80;99.90;;;;;;4973824;28;20585;-74
2022/12/15 02:20:35;;;;;;;65.33;30.97;;;-7.80;99.90;;;;;;4973628;28;20222;-75
2022/12/15 02:23:37;;;;;;;62.13;31.90;;;-7.80;99.90;;;;;;4956915;28;20458;-76
2022/12/15 02:26:39;;;;;;;65.63;32.40;;;-7.70;99.90;;;;;;4973978;28;20188;-76
2022/12/15 02:29:20;;;;;;;70.93;30.40;;;-7.80;99.90;;;;;;4973060;28;20247;-74
2022/12/15 02:31:55;;;;;;;63.97;29.53;;;-8.00;99.90;;;;;;4973579;28;20204;-74
2022/12/15 02:34:31;;;;;;;62.80;31.80;;;-8.00;99.90;;;;;;4973299;28;20227;-73
2022/12/15 02:37:04;;;;;;;68.47;31.60;;;-8.00;99.90;;;;;;4973223;28;20204;-76
2022/12/15 02:39:33;;;;;;;74.30;30.87;;;-8.10;99.90;;;;;;4973533;28;20329;-75
2022/12/15 02:42:01;;;;;;;68.07;31.70;;;-8.20;99.90;;;;;;4973635;28;20614;-75
2022/12/15 02:44:34;;;;;;;71.17;32.60;;;-8.20;99.90;;;;;;4973212;28;20559;-75
2022/12/15 02:47:31;;;;;;;68.73;31.80;;;-8.30;99.90;;;;;;4973617;28;20714;-73
2022/12/15 02:50:22;;;;;;;73.17;30.30;;;-8.20;99.90;;;;;;4973284;28;20200;-74
2022/12/15 02:53:00;;;;;;;67.43;30.83;;;-8.20;99.90;;;;;;4973183;28;20197;-73
2022/12/15 02:55:36;;;;;;;69.20;31.47;;;-8.20;99.90;;;;;;4973406;28;20193;-73
2022/12/15 02:58:10;;;;;;;82.57;32.53;;;-8.30;99.90;;;;;;4972681;28;20256;-73
2022/12/15 03:00:44;;;;;;;63.83;30.83;;;-8.40;99.90;;;;;;4973255;28;20610;-72
2022/12/15 03:03:18;;;;;;;65.50;29.27;;;-8.40;99.90;;;;;;4965283;28;20976;-72
2022/12/15 03:05:48;;;;;;;69.70;30.83;;;-8.30;99.90;;;;;;4972839;28;20443;-74
2022/12/15 03:08:16;;;;;;;70.87;32.03;;;-8.40;99.90;;;;;;4973078;28;20204;-75
2022/12/15 03:10:45;;;;;;;71.27;31.20;;;-8.30;99.90;;;;;;4972960;28;20793;-75
2022/12/15 03:13:14;;;;;;;60.23;30.80;;;-8.40;99.90;;;;;;4972763;28;20447;-75
2022/12/15 03:15:42;;;;;;;66.93;30.67;;;-8.40;99.90;;;;;;4972606;28;20483;-75
2022/12/15 03:18:11;;;;;;;59.87;30.30;;;-8.40;99.90;;;;;;4955470;28;20659;-75
2022/12/15 03:20:41;;;;;;;64.07;28.33;;;-8.30;99.90;;;;;;4972610;28;20452;-75
2022/12/15 03:23:09;;;;;;;54.23;27.93;;;-8.30;99.90;;;;;;4972696;28;20568;-76
2022/12/15 03:25:38;;;;;;;70.73;28.90;;;-8.40;99.90;;;;;;4972822;28;20295;-75
2022/12/15 03:28:06;;;;;;;66.20;28.87;;;-8.40;99.90;;;;;;4972546;28;20219;-75
2022/12/15 03:30:35;;;;;;;62.77;30.63;;;-8.40;99.90;;;;;;4972833;28;20214;-76
2022/12/15 03:33:03;;;;;;;64.27;28.90;;;-8.40;99.90;;;;;;4972718;28;20449;-75
2022/12/15 03:35:32;;;;;;;56.60;28.40;;;-8.40;99.90;;;;;;4973097;28;20491;-76
2022/12/15 03:38:02;;;;;;;61.67;28.40;;;-8.40;99.90;;;;;;4972939;28;20523;-76
2022/12/15 03:40:31;;;;;;;63.67;29.93;;;-8.30;99.90;;;;;;4973083;28;20215;-75
2022/12/15 03:42:59;;;;;;;70.03;30.30;;;-8.30;99.90;;;;;;4972623;28;20451;-75
2022/12/15 03:45:29;;;;;;;65.00;30.87;;;-8.30;99.90;;;;;;4972802;28;20455;-77
2022/12/15 03:47:58;;;;;;;59.60;29.53;;;-8.30;99.90;;;;;;4972658;28;20459;-76
2022/12/15 03:50:28;;;;;;;63.60;29.33;;;-8.20;99.90;;;;;;4972675;28;20443;-76
2022/12/15 03:52:58;;;;;;;63.13;30.40;;;-8.30;99.90;;;;;;4972696;28;20452;-74
2022/12/15 03:55:28;;;;;;;64.77;29.90;;;-8.50;99.90;;;;;;4972478;28;20487;-76
2022/12/15 03:57:58;;;;;;;66.80;29.47;;;-8.60;99.90;;;;;;4972445;28;20623;-77
2022/12/15 04:00:27;;;;;;;56.93;28.67;;;-8.60;99.90;;;;;;4972592;28;20443;-77
2022/12/15 04:02:55;;;;;;;66.63;29.40;;;-8.50;99.90;;;;;;4972801;28;20470;-73
2022/12/15 04:05:26;;;;;;;55.53;26.37;;;-8.40;99.90;;;;;;4972640;28;20267;-76
2022/12/15 04:07:55;;;;;;;62.90;29.03;;;-8.30;99.90;;;;;;4972789;28;20842;-72
2022/12/15 04:10:25;;;;;;;64.10;28.13;;;-8.40;99.90;;;;;;4975751;28;20530;-77
2022/12/15 04:13:04;;;;;;;67.93;28.70;;;-8.40;99.90;;;;;;4975760;28;20200;-75
2022/12/15 04:15:33;;;;;;;60.27;27.20;;;-8.30;99.90;;;;;;4975676;28;20542;-76
2022/12/15 04:18:03;;;;;;;70.90;30.67;;;-8.30;99.90;;;;;;4975704;28;20451;-74
2022/12/15 04:20:32;;;;;;;57.50;27.60;;;-8.50;99.90;;;;;;4975755;28;20455;-76
2022/12/15 04:23:00;;;;;;;69.93;30.63;;;-8.50;99.90;;;;;;4975600;28;20446;-76
2022/12/15 10:00:11;;;;;;;57.40;27.23;;;-5.70;99.90;;;;;;5109588;27;20537;-76
2022/12/15 10:03:08;;;;;;;53.70;26.37;;;-5.50;99.90;;;;;;5109682;28;20618;-77
2022/12/15 10:05:48;;;;;;;57.17;27.17;;;-5.30;99.90;;;;;;5066919;28;20229;-77
2022/12/15 10:08:40;;;;;;;60.37;28.67;;;-5.10;99.90;;;;;;5066846;28;20533;-75
2022/12/15 10:11:20;;;;;;;60.57;30.50;;;-4.90;99.90;;;;;;5066825;28;20216;-73
2022/12/15 10:13:54;;;;;;;60.27;29.23;;;-4.80;99.90;;;;;;5066596;28;20199;-78
2022/12/15 10:16:30;;;;;;;65.97;32.77;;;-4.70;99.90;;;;;;5066304;28;20223;-75
2022/12/15 10:19:08;;;;;;;80.07;36.03;;;-4.60;99.60;;;;;;5049799;28;20691;-75
2022/12/15 10:21:40;;;;;;;93.70;44.27;;;-4.50;99.50;;;;;;5049596;28;20212;-74
2022/12/15 10:24:16;;;;;;;60.80;32.20;;;-4.40;99.90;;;;;;5066396;28;20668;-75
2022/12/15 10:27:16;;;;;;;66.97;30.63;;;-4.30;99.30;;;;;;5049737;28;20232;-76
2022/12/15 10:29:47;;;;;;;52.17;26.70;;;-4.20;98.20;;;;;;5066215;28;20209;-78
2022/12/15 10:32:24;;;;;;;54.23;27.50;;;-4.20;96.30;;;;;;5049424;28;20276;-78
2022/12/15 10:34:53;;;;;;;53.50;26.27;;;-4.10;96.00;;;;;;5066267;28;20197;-79
2022/12/15 10:37:23;;;;;;;49.07;25.23;;;-4.00;96.10;;;;;;5066068;28;20255;-81
2022/12/15 10:39:51;;;;;;;49.43;26.00;;;-4.00;95.30;;;;;;5066057;28;20225;-76
2022/12/15 10:42:22;;;;;;;50.53;26.40;;;-3.90;95.60;;;;;;5078454;28;20203;-80
2022/12/15 10:44:53;;;;;;;46.70;25.83;;;-3.80;94.80;;;;;;5108809;28;20593;-76
2022/12/15 10:47:25;;;;;;;49.03;25.20;;;-3.70;94.80;;;;;;5108559;28;20201;-76
2022/12/15 10:49:56;;;;;;;47.07;25.97;;;-3.70;94.70;;;;;;5107379;28;20211;-77
2022/12/15 10:52:31;;;;;;;44.57;24.33;;;-3.60;93.90;;;;;;5108852;28;20291;-82
2022/12/15 10:55:00;;;;;;;51.53;26.30;;;-3.60;93.50;;;;;;5108511;28;20192;-77
2022/12/15 10:57:30;;;;;;;47.47;25.17;;;-3.50;93.80;;;;;;5108590;28;20529;-80
2022/12/15 11:00:27;;;;;;;45.00;24.77;;;-3.40;93.60;;;;;;5108534;28;20220;-79
2022/12/15 11:02:58;;;;;;;48.63;25.73;;;-3.30;93.40;;;;;;5108657;28;20195;-79
2022/12/15 11:05:27;;;;;;;47.03;24.47;;;-3.30;93.00;;;;;;5108381;28;20192;-78
2022/12/15 11:08:30;;;;;;;50.90;25.43;;;-3.20;92.50;;;;;;5108133;28;20191;-77
2022/12/15 11:14:06;;;;;;;49.47;24.77;;;-3.10;92.50;;;;;;5094586;28;20212;-78
2022/12/15 11:16:42;;;;;;;51.13;25.50;;;-3.00;91.80;;;;;;5094535;28;20198;-78
2022/12/15 11:19:16;;;;;;;57.37;27.53;;;-3.00;92.30;;;;;;5094434;28;20223;-77
2022/12/15 11:21:49;;;;;;;50.43;26.70;;;-2.90;92.80;;;;;;5094569;28;20200;-76
2022/12/15 11:24:26;;;;;;;46.53;25.53;;;-2.80;93.70;;;;;;5094396;28;20190;-76
2022/12/15 11:27:01;;;;;;;40.83;23.27;;;-2.70;94.00;;;;;;5094381;28;20273;-78
2022/12/15 11:29:42;;;;;;;45.87;23.83;;;-2.70;92.70;;;;;;5094299;28;20335;-76
2022/12/15 11:32:14;;;;;;;47.07;23.07;;;-2.60;91.80;;;;;;5094204;28;20270;-76
2022/12/15 11:34:46;;;;;;;50.80;24.63;;;-2.50;91.30;;;;;;5094279;28;20230;-76
2022/12/15 11:37:35;;;;;;;46.53;23.13;;;-2.50;91.00;;;;;;5094049;28;20247;-77
2022/12/15 11:40:33;;;;;;;40.63;23.63;;;-2.40;91.20;;;;;;5094067;28;20768;-75
2022/12/15 11:43:42;;;;;;;40.57;22.30;;;-2.40;91.00;;;;;;5092688;28;20670;-75
2022/12/15 11:46:20;;;;;;;38.83;22.27;;;-2.40;90.80;;;;;;5093984;28;20283;-78
2022/12/15 11:49:22;;;;;;;42.73;23.20;;;-2.30;90.30;;;;;;5094228;28;20551;-76
2022/12/15 11:51:57;;;;;;;45.57;23.60;;;-2.20;90.00;;;;;;5093805;28;20219;-77
2022/12/15 11:54:29;;;;;;;42.97;22.67;;;-2.10;89.60;;;;;;5093795;28;20293;-82
2022/12/15 11:57:03;;;;;;;47.00;24.03;;;-2.10;90.00;;;;;;5093726;28;20736;-81
2022/12/15 11:59:52;;;;;;;44.97;24.73;;;-2.20;90.50;;;;;;5093514;28;20235;-75
2022/12/15 12:02:44;;;;;;;43.20;23.10;;;-2.20;90.70;;;;;;5093625;28;20188;-75
2022/12/15 12:05:36;;;;;;;43.27;23.33;;;-2.10;90.30;;;;;;5093792;28;20204;-80
2022/12/15 12:08:20;;;;;;;38.07;20.67;;;-2.20;90.80;;;;;;5093818;28;20196;-75
2022/12/15 12:10:57;;;;;;;37.90;20.73;;;-2.20;91.00;;;;;;5093660;28;20298;-80
2022/12/15 12:13:34;;;;;;;43.63;23.83;;;-2.20;91.10;;;;;;5093630;28;20199;-78
2022/12/15 12:16:15;;;;;;;45.07;21.23;;;-2.20;91.30;;;;;;5093409;28;20281;-79
2022/12/15 12:18:51;;;;;;;39.57;21.93;;;-2.20;91.30;;;;;;5092599;28;20270;-77
2022/12/15 12:21:24;;;;;;;41.33;20.47;;;-2.10;90.70;;;;;;5091482;28;20196;-77
2022/12/15 12:24:00;;;;;;;40.43;21.23;;;-2.10;90.70;;;;;;5093658;28;20267;-77
2022/12/15 12:26:35;;;;;;;38.50;20.87;;;-2.10;90.70;;;;;;5092019;28;20661;-80
2022/12/15 12:29:11;;;;;;;34.70;21.10;;;-2.10;90.00;;;;;;5092940;28;20225;-78
2022/12/15 12:31:49;;;;;;;35.00;20.33;;;-2.20;89.90;;;;;;5093079;28;20209;-79
2022/12/15 12:34:26;;;;;;;32.43;19.53;;;-2.20;89.50;;;;;;5093251;28;20271;-78
2022/12/15 12:36:57;;;;;;;37.33;21.77;;;-2.20;89.30;;;;;;5092965;28;20604;-80
2022/12/15 12:39:28;;;;;;;37.67;20.47;;;-2.10;89.10;;;;;;5093239;28;20308;-85
2022/12/15 12:42:06;;;;;;;37.30;20.43;;;-2.10;88.00;;;;;;5091895;28;20200;-84
2022/12/15 12:44:37;;;;;;;37.40;19.23;;;-2.10;87.10;;;;;;5092991;28;20245;-83
2022/12/15 12:47:14;;;;;;;31.00;18.30;;;-2.00;86.00;;;;;;5091865;28;20214;-84
2022/12/15 12:49:45;;;;;;;38.13;20.43;;;-1.90;85.70;;;;;;5092902;28;20283;-80
2022/12/15 12:52:22;;;;;;;34.60;19.30;;;-1.80;83.00;;;;;;5092756;28;20216;-80
2022/12/15 12:55:00;;;;;;;32.57;18.53;;;-1.60;81.20;;;;;;5092781;28;20604;-74
2022/12/15 12:57:33;;;;;;;34.73;18.97;;;-1.40;80.10;;;;;;5092587;28;20282;-75
2022/12/15 13:00:13;;;;;;;36.40;19.30;;;-1.40;77.40;;;;;;5091147;28;20261;-77
2022/12/15 13:02:48;;;;;;;31.07;19.63;;;-1.30;77.20;;;;;;5092468;28;20192;-79
2022/12/15 13:05:30;;;;;;;33.30;20.63;;;-1.20;76.50;;;;;;5092502;28;20188;-75
2022/12/15 13:08:17;;;;;;;36.10;19.10;;;-1.10;76.00;;;;;;5092519;28;20253;-78
2022/12/15 13:10:48;;;;;;;39.60;20.90;;;-1.20;75.50;;;;;;5092263;28;20210;-79
2022/12/15 13:13:43;;;;;;;34.77;20.60;;;-1.10;75.40;;;;;;5092642;28;20228;-80
2022/12/15 13:16:23;;;;;;;34.87;20.37;;;-1.20;76.10;;;;;;5092551;28;20223;-79
2022/12/15 13:18:58;;;;;;;39.40;20.63;;;-1.40;75.80;;;;;;5092392;28;20666;-80
2022/12/15 13:21:53;;;;;;;36.13;20.20;;;-1.40;76.10;;;;;;5090929;28;20254;-79
2022/12/15 13:24:36;;;;;;;39.43;21.43;;;-1.40;76.20;;;;;;5092300;28;20238;-74
2022/12/15 13:27:14;;;;;;;39.90;21.17;;;-1.60;77.60;;;;;;5092206;28;20212;-79
2022/12/15 13:29:58;;;;;;;41.07;22.80;;;-1.70;78.00;;;;;;5092553;28;20198;-80
2022/12/15 13:32:32;;;;;;;40.87;21.97;;;-1.80;79.50;;;;;;5091692;28;20684;-78
2022/12/15 13:35:22;;;;;;;40.17;22.67;;;-2.00;80.80;;;;;;5092185;28;20664;-77
2022/12/15 13:37:52;;;;;;;39.00;20.43;;;-2.20;83.10;;;;;;5092054;28;20200;-78
2022/12/15 13:40:49;;;;;;;45.33;23.83;;;-2.30;85.10;;;;;;5091960;28;20208;-77
2022/12/15 13:43:43;;;;;;;43.33;23.70;;;-2.40;86.80;;;;;;5091716;28;20196;-80
2022/12/15 13:46:18;;;;;;;49.37;24.20;;;-2.40;88.30;;;;;;5090699;28;20235;-79
2022/12/15 13:48:53;;;;;;;42.73;22.53;;;-2.40;88.50;;;;;;5092138;28;20192;-81
2022/12/15 13:51:29;;;;;;;46.40;24.80;;;-2.50;88.50;;;;;;5091930;28;20196;-80
2022/12/15 13:54:01;;;;;;;46.47;24.67;;;-2.50;89.50;;;;;;5091993;28;20191;-79
2022/12/15 13:56:53;;;;;;;46.10;24.10;;;-2.60;90.40;;;;;;5092126;28;20663;-81
2022/12/15 13:59:40;;;;;;;45.47;24.17;;;-2.70;91.20;;;;;;5086723;28;20238;-81
2022/12/15 14:02:24;;;;;;;43.20;24.10;;;-2.80;91.70;;;;;;5083539;28;20241;-79
2022/12/15 14:05:11;;;;;;;41.17;22.10;;;-2.80;91.90;;;;;;5086732;28;20377;-78
2022/12/15 14:07:43;;;;;;;43.67;23.83;;;-2.90;92.20;;;;;;5071810;28;20742;-79
2022/12/15 14:10:22;;;;;;;46.07;24.50;;;-2.80;92.40;;;;;;5074255;28;21002;-77
2022/12/15 14:12:53;;;;;;;50.13;26.17;;;-2.90;92.70;;;;;;5092405;28;20718;-76
2022/12/15 14:15:30;;;;;;;47.47;25.87;;;-2.90;93.10;;;;;;5090355;28;20227;-79
2022/12/15 14:18:01;;;;;;;53.47;27.50;;;-3.00;93.10;;;;;;5091892;28;20797;-78
2022/12/15 14:20:31;;;;;;;54.03;26.50;;;-3.10;93.70;;;;;;5092111;28;20215;-82
2022/12/15 14:23:00;;;;;;;54.43;27.60;;;-3.10;94.00;;;;;;5092091;28;20217;-80
2022/12/15 14:25:29;;;;;;;55.83;27.90;;;-3.20;94.20;;;;;;5092031;28;20562;-80
2022/12/15 14:27:58;;;;;;;48.40;26.77;;;-3.30;94.80;;;;;;5091367;28;20211;-81
2022/12/15 14:30:31;;;;;;;62.10;29.60;;;-3.40;95.50;;;;;;5092025;28;20270;-80
2022/12/15 14:33:03;;;;;;;53.37;28.83;;;-3.40;96.00;;;;;;5093950;28;20660;-80
2022/12/15 14:35:36;;;;;;;53.07;29.53;;;-3.40;96.20;;;;;;5094034;28;20225;-81
2022/12/15 14:38:11;;;;;;;54.47;28.27;;;-3.50;97.10;;;;;;5092006;28;20235;-81
2022/12/15 14:40:41;;;;;;;56.87;28.03;;;-3.50;97.40;;;;;;5091589;28;20299;-80
2022/12/15 14:43:22;;;;;;;54.70;28.63;;;-3.60;97.40;;;;;;5091257;28;20280;-80
2022/12/15 14:45:55;;;;;;;49.60;27.70;;;-3.60;97.90;;;;;;5094251;28;20227;-80
2022/12/15 14:48:31;;;;;;;58.87;28.20;;;-3.70;98.20;;;;;;5095537;28;20205;-79
2022/12/15 14:51:11;;;;;;;52.37;27.70;;;-3.70;98.80;;;;;;5094815;28;20522;-80
2022/12/15 14:53:41;;;;;;;60.13;31.27;;;-3.70;98.40;;;;;;5094734;28;20223;-77
2022/12/15 14:56:25;;;;;;;61.13;30.80;;;-3.80;99.10;;;;;;5094705;28;20194;-80
2022/12/15 14:59:03;;;;;;;63.27;31.43;;;-3.80;99.20;;;;;;5094152;28;20278;-77
2022/12/15 15:01:39;;;;;;;60.50;29.70;;;-3.90;99.90;;;;;;5094233;28;20315;-76
2022/12/15 15:04:24;;;;;;;66.77;32.67;;;-4.10;99.90;;;;;;5094450;28;20204;-78
2022/12/15 15:06:55;;;;;;;59.30;30.33;;;-4.10;99.90;;;;;;5094262;28;20224;-79
2022/12/15 15:09:27;;;;;;;69.07;33.77;;;-4.10;99.90;;;;;;5094435;28;20292;-78
2022/12/15 15:12:00;;;;;;;64.57;33.70;;;-4.20;99.90;;;;;;5093533;28;20667;-79
2022/12/15 15:14:32;;;;;;;68.83;33.37;;;-4.20;99.90;;;;;;5094186;28;20625;-78
2022/12/15 15:17:05;;;;;;;68.57;34.57;;;-4.20;99.90;;;;;;5094164;28;20196;-77
2022/12/15 15:19:37;;;;;;;61.73;33.50;;;-4.20;99.90;;;;;;5094018;28;20279;-80
2022/12/15 15:22:23;;;;;;;65.90;32.77;;;-4.20;99.90;;;;;;5094150;28;20230;-79
2022/12/15 15:24:51;;;;;;;76.80;35.70;;;-4.20;99.90;;;;;;5094433;28;20573;-79
2022/12/15 15:27:26;;;;;;;68.13;35.10;;;-4.30;99.90;;;;;;5094247;28;20197;-80
2022/12/15 15:30:14;;;;;;;72.03;34.33;;;-4.40;99.90;;;;;;5094432;28;20239;-79
2022/12/15 15:32:55;;;;;;;73.80;33.50;;;-4.40;99.90;;;;;;5094553;28;20199;-79
2022/12/15 15:35:26;;;;;;;70.47;37.40;;;-4.40;99.90;;;;;;5095079;28;20223;-79
2022/12/15 15:38:04;;;;;;;80.33;36.60;;;-4.60;99.90;;;;;;5094154;28;20190;-74
2022/12/15 15:40:33;;;;;;;67.90;34.53;;;-4.60;99.90;;;;;;5093924;28;20287;-79
2022/12/15 15:43:07;;;;;;;72.60;36.07;;;-4.70;99.90;;;;;;5092729;28;20250;-81
2022/12/15 15:45:36;;;;;;;78.67;36.53;;;-4.60;99.90;;;;;;5094262;28;20628;-83
2022/12/15 15:48:07;;;;;;;70.23;34.33;;;-4.60;99.90;;;;;;5094136;28;20205;-81
2022/12/15 15:50:37;;;;;;;67.17;34.63;;;-4.60;99.90;;;;;;5093957;28;20757;-79
2022/12/15 15:53:05;;;;;;;76.60;35.60;;;-4.60;99.90;;;;;;5093877;28;20275;-85
2022/12/15 15:55:35;;;;;;;73.50;36.57;;;-4.60;99.90;;;;;;5093959;28;20207;-80
2022/12/15 15:58:11;;;;;;;78.97;37.90;;;-4.60;99.90;;;;;;5088599;28;20229;-81
2022/12/15 16:00:40;;;;;;;74.03;36.90;;;-4.60;99.90;;;;;;5090164;28;20235;-85
2022/12/15 16:03:10;;;;;;;77.57;38.73;;;-4.60;99.90;;;;;;5093468;28;20640;-82
2022/12/15 16:05:39;;;;;;;82.03;38.17;;;-4.60;99.90;;;;;;5093176;28;20581;-83
2022/12/15 16:08:13;;;;;;;79.60;39.90;;;-4.70;99.90;;;;;;5093321;28;20682;-82
2022/12/15 16:10:44;;;;;;;84.57;41.73;;;-4.80;99.90;;;;;;5093336;28;20204;-83
2022/12/15 16:13:12;;;;;;;87.27;41.37;;;-4.80;99.90;;;;;;5092978;28;20243;-82
2022/12/15 16:15:41;;;;;;;77.33;38.97;;;-4.90;99.90;;;;;;5093326;28;20196;-82
2022/12/15 16:18:12;;;;;;;76.90;39.43;;;-4.90;99.90;;;;;;5091735;28;20610;-82
2022/12/15 16:20:42;;;;;;;80.47;39.57;;;-4.90;99.90;;;;;;5093517;28;20196;-85
2022/12/15 16:23:14;;;;;;;82.23;39.73;;;-5.00;99.90;;;;;;5093073;28;20200;-83
2022/12/15 16:25:44;;;;;;;82.93;38.60;;;-5.10;99.90;;;;;;5092960;28;20295;-82
2022/12/15 16:28:20;;;;;;;83.70;40.17;;;-5.10;99.90;;;;;;5092593;28;20204;-81
2022/12/15 16:30:49;;;;;;;78.30;38.47;;;-5.10;99.90;;;;;;5092399;28;20234;-82
2022/12/15 16:33:19;;;;;;;79.40;39.77;;;-5.20;99.90;;;;;;5092809;28;20196;-83
2022/12/15 16:35:49;;;;;;;82.40;39.80;;;-5.10;99.90;;;;;;5092698;28;20228;-84
2022/12/15 16:38:23;;;;;;;78.67;37.77;;;-5.00;99.90;;;;;;5092663;28;20207;-73
2022/12/15 16:40:53;;;;;;;74.63;37.47;;;-4.80;99.90;;;;;;5092496;28;20203;-78
2022/12/15 16:43:24;;;;;;;74.53;37.13;;;-4.80;99.90;;;;;;5092697;28;20193;-81
2022/12/15 16:45:56;;;;;;;80.33;34.53;;;-4.70;99.90;;;;;;5093205;28;20586;-80
2022/12/15 16:48:27;;;;;;;76.50;37.27;;;-4.60;99.90;;;;;;5093359;28;20219;-80
2022/12/15 16:50:58;;;;;;;77.17;38.27;;;-4.60;99.90;;;;;;5093519;28;20196;-81
2022/12/15 16:53:29;;;;;;;77.37;33.97;;;-4.70;99.90;;;;;;5093395;28;20270;-82
2022/12/15 16:55:59;;;;;;;74.63;36.33;;;-4.60;99.90;;;;;;5093667;28;20212;-80
2022/12/15 16:58:29;;;;;;;81.83;35.90;;;-4.50;99.90;;;;;;5093281;28;20235;-81
2022/12/15 17:00:58;;;;;;;78.23;34.53;;;-4.40;99.90;;;;;;5093270;28;20200;-82
2022/12/15 17:03:28;;;;;;;74.50;34.30;;;-4.50;99.90;;;;;;5093204;28;20191;-82
2022/12/15 17:06:00;;;;;;;71.70;34.30;;;-4.50;99.90;;;;;;5092921;28;20204;-80
2022/12/15 17:08:39;;;;;;;77.63;34.17;;;-4.50;99.90;;;;;;5092627;28;20225;-81
2022/12/15 17:11:13;;;;;;;65.53;34.37;;;-4.40;99.90;;;;;;5091480;28;20224;-80
2022/12/15 17:13:42;;;;;;;75.20;36.20;;;-4.40;99.90;;;;;;5091844;28;20596;-81
2022/12/15 17:16:14;;;;;;;69.47;34.53;;;-4.40;99.90;;;;;;5093078;28;20201;-81
2022/12/15 17:18:44;;;;;;;73.63;34.70;;;-4.50;99.90;;;;;;5093258;28;20294;-81
2022/12/15 17:21:20;;;;;;;73.60;35.53;;;-4.40;99.90;;;;;;5092905;28;20196;-81
2022/12/15 17:23:52;;;;;;;78.93;37.13;;;-4.50;99.90;;;;;;5093073;28;20204;-82
2022/12/15 17:26:23;;;;;;;65.87;34.80;;;-4.40;99.90;;;;;;5091775;28;20220;-78
2022/12/15 17:28:58;;;;;;;77.53;36.77;;;-4.30;99.90;;;;;;5093124;28;20199;-79
2022/12/15 17:31:27;;;;;;;74.87;35.90;;;-4.30;99.90;;;;;;5092804;28;20193;-78
2022/12/15 17:34:22;;;;;;;75.97;37.43;;;-4.30;99.90;;;;;;5092710;28;20652;-82
2022/12/15 17:36:50;;;;;;;71.73;34.23;;;-4.30;99.90;;;;;;5092664;28;20192;-82
2022/12/15 17:39:20;;;;;;;82.33;41.70;;;-4.20;99.90;;;;;;5092633;28;20263;-82
2022/12/15 17:41:49;;;;;;;75.40;36.17;;;-4.10;99.90;;;;;;5092861;28;20238;-80
2022/12/15 17:44:35;;;;;;;71.47;37.30;;;-4.00;99.90;;;;;;5093085;28;20299;-78
2022/12/15 17:47:07;;;;;;;77.70;37.30;;;-4.00;99.90;;;;;;5092751;28;20197;-79
2022/12/15 17:49:38;;;;;;;70.97;35.77;;;-4.00;99.90;;;;;;5092525;28;20670;-81
2022/12/15 17:52:14;;;;;;;78.03;38.17;;;-4.00;99.90;;;;;;5092613;28;20563;-78
2022/12/15 17:54:43;;;;;;;77.93;37.67;;;-3.90;99.90;;;;;;5092450;28;20212;-79
2022/12/15 17:57:12;;;;;;;74.87;36.53;;;-3.80;99.90;;;;;;5092618;28;20193;-80
2022/12/15 17:59:41;;;;;;;87.73;41.43;;;-3.70;99.90;;;;;;5092288;28;20278;-78
2022/12/15 18:02:12;;;;;;;77.23;38.27;;;-3.70;99.90;;;;;;5092770;28;20224;-84
2022/12/15 18:04:42;;;;;;;78.03;37.50;;;-3.70;99.90;;;;;;5092704;28;20193;-85
2022/12/15 18:07:18;;;;;;;79.13;34.50;;;-3.70;99.90;;;;;;5087500;28;20291;-77
2022/12/15 18:09:46;;;;;;;69.73;35.43;;;-3.60;99.90;;;;;;5079387;28;20270;-72
2022/12/15 18:12:19;;;;;;;80.17;35.87;;;-3.50;99.90;;;;;;5091024;28;20673;-76
2022/12/15 18:14:48;;;;;;;72.70;36.40;;;-3.50;99.90;;;;;;5090924;28;20670;-79
2022/12/15 18:17:17;;;;;;;75.07;36.07;;;-3.40;99.90;;;;;;5091144;28;20701;-78
2022/12/15 18:19:47;;;;;;;70.23;33.67;;;-3.40;99.90;;;;;;5091846;28;20224;-80
2022/12/15 18:22:20;;;;;;;69.43;33.37;;;-3.30;99.90;;;;;;5095015;28;20243;-79
2022/12/15 18:24:51;;;;;;;71.70;34.20;;;-3.20;99.90;;;;;;5095351;28;20565;-81
2022/12/15 18:27:22;;;;;;;79.40;35.20;;;-3.20;99.90;;;;;;5095247;28;20200;-80
2022/12/15 18:29:51;;;;;;;70.90;34.77;;;-3.30;99.90;;;;;;5095016;28;20693;-77
2022/12/15 18:32:22;;;;;;;79.37;36.90;;;-3.30;99.90;;;;;;5095256;28;20188;-80
2022/12/15 18:34:52;;;;;;;74.37;35.17;;;-3.40;99.90;;;;;;5094788;28;20223;-83
2022/12/15 18:37:23;;;;;;;80.57;37.23;;;-3.30;99.90;;;;;;5094512;28;20735;-79
2022/12/15 18:39:52;;;;;;;79.23;37.60;;;-3.50;99.90;;;;;;5095255;28;20253;-81
2022/12/15 18:42:21;;;;;;;82.73;38.17;;;-3.60;99.90;;;;;;5094969;28;20225;-81
2022/12/15 18:44:52;;;;;;;82.93;39.47;;;-3.70;99.90;;;;;;5095003;28;20235;-80
2022/12/15 18:47:23;;;;;;;75.23;39.37;;;-3.60;99.90;;;;;;5095044;28;20217;-80
2022/12/15 18:49:53;;;;;;;84.10;39.47;;;-3.60;99.90;;;;;;5095027;28;20352;-80
2022/12/15 18:52:24;;;;;;;95.40;40.90;;;-3.60;99.90;;;;;;5092942;28;20207;-78
2022/12/15 18:54:59;;;;;;;89.97;38.30;;;-3.60;99.90;;;;;;5094727;28;20201;-78
2022/12/15 18:57:30;;;;;;;82.90;38.07;;;-3.50;99.90;;;;;;5094644;28;20291;-76
2022/12/15 19:00:03;;;;;;;91.87;40.37;;;-3.60;99.90;;;;;;5094761;28;20710;-81
2022/12/15 19:02:31;;;;;;;83.27;40.33;;;-3.60;99.90;;;;;;5092964;28;20237;-80
2022/12/15 19:05:01;;;;;;;92.50;41.40;;;-3.60;99.90;;;;;;5093799;28;20224;-79
2022/12/15 19:07:30;;;;;;;84.90;39.90;;;-3.50;99.90;;;;;;5094843;28;20203;-81
2022/12/15 19:09:59;;;;;;;91.53;42.87;;;-3.60;99.90;;;;;;5093538;28;20211;-83
2022/12/15 19:12:28;;;;;;;96.97;45.77;;;-3.50;99.90;;;;;;5094580;28;20228;-78
2022/12/15 19:14:57;;;;;;;93.30;44.20;;;-3.50;99.90;;;;;;5094002;28;20286;-80
2022/12/15 19:23:05;;;;;;;89.47;40.60;;;-3.50;99.90;;;;;;5094225;28;20306;-82
2022/12/15 19:25:35;;;;;;;93.77;41.30;;;-3.60;99.90;;;;;;5094230;28;20200;-81
2022/12/15 19:28:05;;;;;;;83.67;39.43;;;-3.60;99.90;;;;;;5093939;28;20208;-77
2022/12/15 19:30:34;;;;;;;88.27;40.47;;;-3.60;99.90;;;;;;5093748;28;20200;-79
2022/12/15 19:33:09;;;;;;;82.80;37.00;;;-3.60;99.90;;;;;;5075824;28;20207;-81
2022/12/15 19:35:43;;;;;;;86.33;39.13;;;-3.70;99.90;;;;;;5093175;28;20553;-81
2022/12/15 19:38:20;;;;;;;85.60;40.33;;;-3.50;99.90;;;;;;5093925;28;20192;-80
2022/12/15 19:40:52;;;;;;;87.47;40.77;;;-3.50;99.90;;;;;;5093921;28;20190;-73
2022/12/15 19:43:21;;;;;;;98.00;44.13;;;-3.70;99.90;;;;;;5092594;28;20255;-75
2022/12/15 19:45:50;;;;;;;88.50;38.97;;;-3.70;99.90;;;;;;5093792;28;20205;-76
2022/12/15 19:48:19;;;;;;;75.07;36.53;;;-3.70;99.90;;;;;;5092962;28;20193;-78
2022/12/15 19:50:52;;;;;;;83.80;39.57;;;-3.70;99.90;;;;;;5093608;28;20250;-79
2022/12/15 19:53:25;;;;;;;88.73;39.03;;;-3.70;99.90;;;;;;5093767;28;20228;-79
2022/12/15 19:55:55;;;;;;;87.63;39.53;;;-3.70;99.90;;;;;;5093676;28;20245;-78